createdAt,value
2019-03-08T00:00:05.212Z,3.7
2019-03-08T00:01:05.926Z,1.9
2019-03-08T00:02:06.637Z,3.1
2019-03-08T00:03:07.334Z,2.2
2019-03-08T00:04:08.046Z,3.2
2019-03-08T00:05:08.757Z,6.9
2019-03-08T00:06:09.464Z,4.0
2019-03-08T00:07:10.183Z,2.3
2019-03-08T00:08:10.898Z,4.8
2019-03-08T00:09:11.609Z,3.5
2019-03-08T00:10:12.325Z,2.1
2019-03-08T00:11:13.020Z,3.6
2019-03-08T00:12:13.744Z,2.6
2019-03-08T00:13:14.455Z,5.8
2019-03-08T00:14:15.166Z,3.4
2019-03-08T00:15:15.885Z,2.8
2019-03-08T00:16:16.614Z,2.6
2019-03-08T00:17:17.320Z,2.0
2019-03-08T00:18:18.030Z,4.4
2019-03-08T00:19:18.833Z,3.8
2019-03-08T00:20:19.541Z,2.6
2019-03-08T00:21:20.236Z,2.2
2019-03-08T00:22:20.948Z,2.5
2019-03-08T00:23:21.644Z,4.0
2019-03-08T00:24:22.401Z,3.7
2019-03-08T00:25:23.102Z,3.3
2019-03-08T00:26:23.815Z,5.4
2019-03-08T00:27:24.522Z,2.3
2019-03-08T00:28:25.218Z,4.3
2019-03-08T00:29:25.987Z,3.0
2019-03-08T00:30:26.696Z,6.3
2019-03-08T00:31:27.402Z,4.1
2019-03-08T00:32:28.117Z,2.9
2019-03-08T00:33:28.860Z,1.2
2019-03-08T00:34:29.571Z,3.5
2019-03-08T00:35:30.272Z,2.5
2019-03-08T00:36:30.981Z,6.0
2019-03-08T00:37:31.700Z,2.0
2019-03-08T00:38:32.406Z,2.0
2019-03-08T00:39:33.124Z,1.5
2019-03-08T00:40:33.831Z,3.5
2019-03-08T00:41:34.540Z,2.9
2019-03-08T00:42:35.252Z,2.2
2019-03-08T00:43:35.958Z,2.5
2019-03-08T00:44:36.674Z,4.2
2019-03-08T00:45:37.385Z,4.2
2019-03-08T00:46:38.095Z,4.3
2019-03-08T00:47:38.789Z,5.0
2019-03-08T00:48:39.507Z,3.3
2019-03-08T00:49:40.223Z,2.2
2019-03-08T00:50:40.989Z,2.7
2019-03-08T00:51:41.686Z,4.2
2019-03-08T00:52:42.406Z,2.5
2019-03-08T00:53:43.111Z,2.3
2019-03-08T00:54:43.829Z,3.2
2019-03-08T00:55:44.545Z,1.4
2019-03-08T00:56:45.318Z,4.4
2019-03-08T00:57:46.021Z,2.8
2019-03-08T00:58:46.733Z,1.8
2019-03-08T00:59:47.442Z,3.8
2019-03-08T01:00:48.159Z,4.4
2019-03-08T01:01:48.851Z,4.4
2019-03-08T01:02:49.560Z,4.8
2019-03-08T01:03:50.262Z,2.6
2019-03-08T01:04:50.975Z,1.9
2019-03-08T01:05:51.671Z,5.1
2019-03-08T01:06:52.371Z,3.2
2019-03-08T01:07:53.069Z,1.6
2019-03-08T01:08:53.779Z,1.6
2019-03-08T01:09:54.498Z,2.1
2019-03-08T01:10:55.203Z,1.7
2019-03-08T01:11:55.915Z,2.3
2019-03-08T01:12:56.729Z,4.7
2019-03-08T01:13:57.436Z,1.9
2019-03-08T01:14:58.145Z,1.8
2019-03-08T01:15:58.859Z,1.6
2019-03-08T01:16:59.551Z,2.0
2019-03-08T01:18:00.263Z,2.4
2019-03-08T01:19:00.984Z,3.7
2019-03-08T01:20:01.691Z,1.7
2019-03-08T01:21:02.409Z,3.1
2019-03-08T01:22:03.119Z,3.4
2019-03-08T01:23:03.827Z,2.1
2019-03-08T01:24:04.528Z,7.3
2019-03-08T01:25:05.235Z,3.6
2019-03-08T01:26:05.942Z,3.1
2019-03-08T01:27:06.653Z,2.6
2019-03-08T01:28:07.352Z,3.2
2019-03-08T01:29:08.066Z,3.1
2019-03-08T01:30:08.774Z,2.7
2019-03-08T01:31:09.482Z,2.5
2019-03-08T01:32:10.176Z,3.5
2019-03-08T01:33:10.894Z,5.8
2019-03-08T01:34:11.703Z,2.2
2019-03-08T01:35:12.411Z,4.8
2019-03-08T01:36:13.113Z,5.4
2019-03-08T01:37:13.831Z,2.1
2019-03-08T01:38:14.550Z,1.9
2019-03-08T01:39:15.258Z,4.0
2019-03-08T01:40:15.955Z,2.1
2019-03-08T01:41:16.664Z,5.4
2019-03-08T01:42:17.387Z,2.8
2019-03-08T01:43:18.105Z,3.4
2019-03-08T01:44:18.798Z,2.0
2019-03-08T01:45:19.512Z,2.2
2019-03-08T01:46:20.221Z,2.4
2019-03-08T01:47:20.927Z,4.4
2019-03-08T01:48:21.633Z,4.4
2019-03-08T01:49:22.342Z,6.3
2019-03-08T01:50:23.057Z,2.4
2019-03-08T01:51:23.762Z,5.3
2019-03-08T01:52:24.610Z,5.2
2019-03-08T01:53:25.326Z,3.5
2019-03-08T01:54:26.029Z,3.6
2019-03-08T01:55:26.729Z,5.3
2019-03-08T01:56:27.436Z,3.1
2019-03-08T01:57:28.143Z,4.9
2019-03-08T01:58:28.863Z,5.4
2019-03-08T01:59:29.560Z,4.7
2019-03-08T02:00:30.258Z,4.1
2019-03-08T02:01:30.999Z,3.3
2019-03-08T02:02:31.686Z,4.6
2019-03-08T02:03:32.393Z,4.1
2019-03-08T02:04:33.135Z,5.6
2019-03-08T02:05:33.798Z,2.8
2019-03-08T02:06:34.522Z,5.2
2019-03-08T02:07:35.235Z,3.3
2019-03-08T02:08:35.943Z,3.2
2019-03-08T02:09:36.687Z,5.4
2019-03-08T02:10:37.335Z,4.7
2019-03-08T02:11:38.043Z,5.6
2019-03-08T02:12:38.747Z,2.5
2019-03-08T02:13:39.458Z,5.8
2019-03-08T02:14:40.161Z,4.6
2019-03-08T02:15:40.901Z,4.8
2019-03-08T02:16:41.612Z,4.3
2019-03-08T02:17:42.314Z,5.5
2019-03-08T02:18:43.021Z,3.6
2019-03-08T02:19:43.726Z,3.8
2019-03-08T02:20:44.436Z,3.4
2019-03-08T02:21:45.288Z,4.0
2019-03-08T02:22:46.009Z,8.2
2019-03-08T02:23:46.719Z,3.5
2019-03-08T02:24:47.440Z,3.5
2019-03-08T02:25:48.146Z,5.6
2019-03-08T02:26:48.844Z,3.5
2019-03-08T02:27:49.541Z,5.4
2019-03-08T02:28:50.245Z,5.9
2019-03-08T02:29:50.961Z,3.4
2019-03-08T02:30:51.675Z,4.8
2019-03-08T02:31:52.384Z,3.5
2019-03-08T02:32:53.083Z,5.0
2019-03-08T02:33:53.788Z,6.1
2019-03-08T02:34:54.501Z,5.8
2019-03-08T02:35:55.225Z,6.4
2019-03-08T02:36:55.926Z,4.0
2019-03-08T02:37:56.638Z,4.2
2019-03-08T02:38:57.347Z,3.8
2019-03-08T02:39:58.059Z,4.3
2019-03-08T02:40:58.760Z,7.3
2019-03-08T02:41:59.468Z,5.0
2019-03-08T02:43:00.277Z,6.2
2019-03-08T02:44:00.983Z,5.1
2019-03-08T02:45:01.686Z,6.2
2019-03-08T02:46:02.386Z,5.5
2019-03-08T02:47:03.098Z,5.9
2019-03-08T02:48:03.802Z,6.2
2019-03-08T02:49:06.311Z,8.2
2019-03-08T02:50:05.291Z,7.5
2019-03-08T02:51:05.993Z,7.6
2019-03-08T02:52:06.695Z,7.8
2019-03-08T02:53:07.410Z,10.1
2019-03-08T02:54:08.127Z,7.4
2019-03-08T02:55:08.847Z,7.5
2019-03-08T02:56:09.537Z,7.3
2019-03-08T02:57:10.251Z,8.5
2019-03-08T02:58:10.959Z,7.1
2019-03-08T02:59:11.656Z,7.0
2019-03-08T03:00:12.365Z,6.8
2019-03-08T03:01:13.078Z,7.4
2019-03-08T03:02:13.774Z,5.2
2019-03-08T03:03:14.481Z,4.1
2019-03-08T03:04:15.175Z,5.5
2019-03-08T03:05:16.130Z,4.2
2019-03-08T03:06:16.850Z,4.6
2019-03-08T03:07:17.552Z,3.7
2019-03-08T03:08:18.291Z,3.5
2019-03-08T03:09:18.960Z,4.0
2019-03-08T03:10:19.665Z,3.3
2019-03-08T03:11:20.372Z,3.7
2019-03-08T03:12:21.085Z,4.6
2019-03-08T03:13:21.789Z,4.3
2019-03-08T03:14:22.497Z,5.5
2019-03-08T03:15:23.197Z,5.0
2019-03-08T03:16:23.909Z,3.9
2019-03-08T03:17:24.602Z,3.3
2019-03-08T03:18:25.552Z,3.5
2019-03-08T03:19:26.260Z,3.6
2019-03-08T03:20:27.069Z,3.2
2019-03-08T03:21:27.772Z,3.6
2019-03-08T03:22:28.471Z,3.5
2019-03-08T03:23:29.181Z,2.7
2019-03-08T03:24:29.901Z,3.0
2019-03-08T03:25:30.601Z,3.0
2019-03-08T03:26:31.295Z,3.0
2019-03-08T03:27:32.038Z,3.0
2019-03-08T03:28:32.758Z,3.3
2019-03-08T03:29:33.802Z,3.0
2019-03-08T03:30:34.548Z,4.1
2019-03-08T03:31:35.267Z,3.2
2019-03-08T03:32:36.139Z,3.9
2019-03-08T03:33:36.922Z,3.6
2019-03-08T03:34:37.618Z,3.6
2019-03-08T03:35:38.329Z,3.4
2019-03-08T03:36:39.038Z,3.8
2019-03-08T03:37:39.742Z,3.9
2019-03-08T03:38:40.451Z,3.4
2019-03-08T03:39:41.163Z,4.0
2019-03-08T03:40:41.865Z,3.9
2019-03-08T03:41:42.581Z,3.4
2019-03-08T03:42:43.286Z,3.8
2019-03-08T03:43:43.995Z,4.1
2019-03-08T03:44:44.696Z,4.2
2019-03-08T03:45:45.400Z,3.8
2019-03-08T03:46:46.102Z,4.2
2019-03-08T03:47:46.908Z,5.8
2019-03-08T03:48:47.628Z,5.5
2019-03-08T03:49:48.335Z,4.0
2019-03-08T03:50:49.039Z,3.6
2019-03-08T03:51:49.741Z,4.9
2019-03-08T03:52:50.440Z,4.5
2019-03-08T03:53:51.263Z,5.2
2019-03-08T03:54:51.960Z,3.6
2019-03-08T03:55:52.650Z,5.3
2019-03-08T03:56:53.633Z,3.7
2019-03-08T03:57:54.057Z,4.7
2019-03-08T03:58:54.758Z,3.7
2019-03-08T03:59:55.474Z,5.7
2019-03-08T04:00:56.208Z,3.3
2019-03-08T04:01:56.884Z,4.0
2019-03-08T04:02:57.596Z,4.3
2019-03-08T04:03:58.293Z,3.8
2019-03-08T04:04:58.990Z,4.2
2019-03-08T04:05:59.696Z,3.8
2019-03-08T04:07:00.409Z,4.2
2019-03-08T04:08:01.114Z,4.3
2019-03-08T04:09:01.810Z,4.7
2019-03-08T04:10:02.507Z,5.6
2019-03-08T04:11:03.220Z,5.9
2019-03-08T04:12:03.919Z,4.5
2019-03-08T04:13:04.620Z,4.4
2019-03-08T04:14:05.332Z,4.5
2019-03-08T04:15:06.035Z,5.3
2019-03-08T04:16:06.744Z,4.8
2019-03-08T04:17:07.438Z,9.2
2019-03-08T04:18:08.157Z,4.9
2019-03-08T04:19:08.871Z,6.9
2019-03-08T04:20:09.570Z,6.0
2019-03-08T04:21:10.271Z,5.8
2019-03-08T04:22:10.968Z,5.4
2019-03-08T04:23:11.681Z,5.2
2019-03-08T04:24:12.389Z,8.7
2019-03-08T04:25:13.192Z,7.1
2019-03-08T04:26:13.907Z,10.9
2019-03-08T04:27:14.610Z,7.2
2019-03-08T04:28:15.307Z,4.4
2019-03-08T04:29:16.013Z,5.2
2019-03-08T04:30:16.810Z,5.6
2019-03-08T04:31:17.506Z,6.9
2019-03-08T04:32:18.220Z,5.2
2019-03-08T04:33:18.921Z,6.5
2019-03-08T04:34:19.627Z,10.1
2019-03-08T04:35:20.343Z,4.5
2019-03-08T04:36:21.036Z,6.3
2019-03-08T04:37:21.730Z,9.2
2019-03-08T04:38:22.438Z,4.8
2019-03-08T04:39:23.153Z,9.5
2019-03-08T04:40:23.840Z,4.6
2019-03-08T04:41:24.535Z,5.1
2019-03-08T04:42:25.250Z,3.8
2019-03-08T04:43:25.960Z,7.1
2019-03-08T04:44:26.663Z,5.3
2019-03-08T04:45:27.385Z,5.5
2019-03-08T04:46:28.095Z,6.0
2019-03-08T04:47:28.800Z,3.7
2019-03-08T04:48:29.498Z,6.2
2019-03-08T04:49:30.216Z,3.6
2019-03-08T04:50:30.922Z,7.4
2019-03-08T04:51:31.629Z,4.9
2019-03-08T04:52:32.340Z,5.0
2019-03-08T04:53:33.058Z,5.0
2019-03-08T04:54:33.748Z,6.9
2019-03-08T04:55:34.455Z,6.4
2019-03-08T04:56:35.154Z,8.3
2019-03-08T04:57:35.862Z,8.5
2019-03-08T04:58:36.560Z,9.5
2019-03-08T04:59:37.270Z,6.6
2019-03-08T05:00:37.988Z,7.2
2019-03-08T05:01:38.689Z,7.5
2019-03-08T05:02:39.452Z,7.4
2019-03-08T05:03:40.168Z,11.8
2019-03-08T05:04:40.879Z,5.1
2019-03-08T05:05:41.585Z,6.4
2019-03-08T05:06:42.283Z,3.5
2019-03-08T05:07:43.049Z,8.2
2019-03-08T05:08:45.744Z,7.2
2019-03-08T05:09:44.481Z,4.6
2019-03-08T05:10:45.174Z,9.7
2019-03-08T05:11:46.145Z,8.7
2019-03-08T05:12:46.841Z,4.8
2019-03-08T05:13:47.557Z,5.9
2019-03-08T05:14:48.263Z,4.1
2019-03-08T05:15:48.971Z,6.5
2019-03-08T05:16:49.674Z,4.9
2019-03-08T05:17:50.390Z,7.0
2019-03-08T05:18:51.152Z,6.6
2019-03-08T05:19:51.867Z,8.0
2019-03-08T05:20:52.570Z,5.8
2019-03-08T05:21:53.277Z,9.7
2019-03-08T05:22:53.996Z,9.0
2019-03-08T05:23:54.710Z,7.8
2019-03-08T05:24:55.414Z,6.2
2019-03-08T05:25:56.112Z,11.2
2019-03-08T05:26:57.066Z,8.2
2019-03-08T05:27:57.782Z,11.5
2019-03-08T05:28:58.485Z,6.8
2019-03-08T05:29:59.198Z,13.1
2019-03-08T05:30:59.899Z,9.9
2019-03-08T05:32:00.614Z,10.1
2019-03-08T05:33:01.319Z,5.2
2019-03-08T05:34:02.030Z,6.1
2019-03-08T05:35:02.742Z,8.8
2019-03-08T05:36:03.454Z,14.9
2019-03-08T05:37:04.141Z,7.4
2019-03-08T05:38:04.848Z,7.8
2019-03-08T05:39:05.559Z,12.2
2019-03-08T05:40:07.632Z,9.1
2019-03-08T05:41:08.348Z,9.4
2019-03-08T05:42:09.138Z,8.2
2019-03-08T05:43:10.339Z,8.4
2019-03-08T05:44:11.050Z,12.8
2019-03-08T05:45:12.392Z,7.5
2019-03-08T05:46:13.151Z,11.2
2019-03-08T05:47:13.877Z,14.1
2019-03-08T05:48:14.587Z,12.9
2019-03-08T05:49:15.298Z,12.5
2019-03-08T05:50:16.022Z,10.4
2019-03-08T05:51:16.723Z,12.2
2019-03-08T05:52:17.429Z,9.9
2019-03-08T05:53:18.131Z,12.5
2019-03-08T05:54:18.853Z,13.1
2019-03-08T05:55:19.554Z,13.1
2019-03-08T05:56:20.255Z,11.2
2019-03-08T05:57:20.971Z,10.0
2019-03-08T05:58:21.680Z,14.3
2019-03-08T05:59:22.640Z,13.0
2019-03-08T06:00:31.965Z,11.0
2019-03-08T06:01:24.058Z,11.2
2019-03-08T06:02:24.779Z,12.5
2019-03-08T06:03:25.489Z,9.9
2019-03-08T06:04:26.209Z,13.0
2019-03-08T06:05:26.921Z,14.7
2019-03-08T06:06:27.630Z,10.4
2019-03-08T06:07:28.343Z,9.2
2019-03-08T06:08:29.068Z,7.3
2019-03-08T06:09:29.772Z,19.1
2019-03-08T06:10:30.484Z,20.1
2019-03-08T06:11:31.184Z,10.5
2019-03-08T06:12:31.900Z,13.1
2019-03-08T06:13:32.607Z,15.0
2019-03-08T06:14:33.326Z,11.5
2019-03-08T06:15:34.048Z,11.3
2019-03-08T06:16:34.765Z,12.7
2019-03-08T06:17:35.492Z,15.6
2019-03-08T06:18:36.206Z,15.1
2019-03-08T06:19:37.241Z,12.2
2019-03-08T06:20:37.955Z,16.0
2019-03-08T06:21:38.670Z,13.3
2019-03-08T06:22:39.402Z,11.6
2019-03-08T06:23:40.090Z,14.5
2019-03-08T06:24:40.904Z,5.3
2019-03-08T06:25:41.603Z,10.7
2019-03-08T06:26:42.319Z,18.5
2019-03-08T06:27:43.023Z,13.3
2019-03-08T06:28:43.737Z,15.9
2019-03-08T06:29:44.461Z,8.8
2019-03-08T06:30:45.171Z,19.0
2019-03-08T06:31:45.890Z,12.6
2019-03-08T06:32:46.594Z,15.5
2019-03-08T06:33:47.309Z,19.9
2019-03-08T06:34:48.070Z,17.4
2019-03-08T06:35:48.770Z,16.3
2019-03-08T06:36:49.493Z,20.1
2019-03-08T06:37:50.215Z,18.6
2019-03-08T06:38:51.201Z,14.4
2019-03-08T06:39:51.925Z,12.9
2019-03-08T06:40:52.617Z,17.3
2019-03-08T06:41:53.358Z,11.7
2019-03-08T06:42:54.085Z,16.3
2019-03-08T06:43:54.790Z,12.0
2019-03-08T06:44:55.508Z,18.9
2019-03-08T06:45:56.208Z,12.0
2019-03-08T06:46:56.929Z,15.6
2019-03-08T06:47:57.638Z,21.2
2019-03-08T06:48:58.344Z,22.7
2019-03-08T06:49:59.071Z,12.6
2019-03-08T06:50:59.799Z,16.2
2019-03-08T06:52:00.966Z,17.4
2019-03-08T06:53:01.223Z,14.0
2019-03-08T06:54:01.939Z,16.9
2019-03-08T06:55:02.649Z,14.1
2019-03-08T06:56:03.370Z,18.2
2019-03-08T06:57:04.068Z,12.4
2019-03-08T06:58:04.774Z,14.3
2019-03-08T06:59:05.507Z,15.5
2019-03-08T07:00:06.226Z,13.6
2019-03-08T07:01:06.939Z,20.0
2019-03-08T07:02:07.646Z,14.0
2019-03-08T07:03:08.364Z,13.1
2019-03-08T07:04:09.083Z,14.8
2019-03-08T07:05:09.780Z,20.1
2019-03-08T07:06:10.537Z,17.5
2019-03-08T07:07:11.261Z,13.6
2019-03-08T07:08:13.593Z,19.1
2019-03-08T07:09:12.681Z,15.4
2019-03-08T07:10:13.408Z,12.8
2019-03-08T07:11:14.131Z,11.4
2019-03-08T07:12:14.887Z,14.7
2019-03-08T07:13:15.613Z,12.5
2019-03-08T07:14:16.328Z,12.5
2019-03-08T07:15:17.037Z,20.2
2019-03-08T07:16:17.750Z,17.1
2019-03-08T07:17:20.481Z,18.0
2019-03-08T07:18:19.190Z,7.0
2019-03-08T07:19:19.908Z,17.5
2019-03-08T07:20:20.630Z,18.7
2019-03-08T07:21:21.352Z,14.7
2019-03-08T07:22:22.329Z,17.7
2019-03-08T07:23:27.957Z,16.5
2019-03-08T07:24:23.738Z,16.8
2019-03-08T07:25:24.502Z,13.6
2019-03-08T07:26:25.200Z,13.3
2019-03-08T07:27:25.920Z,15.0
2019-03-08T07:28:26.623Z,12.6
2019-03-08T07:29:27.345Z,11.8
2019-03-08T07:30:28.213Z,12.7
2019-03-08T07:31:28.923Z,13.2
2019-03-08T07:32:29.633Z,16.4
2019-03-08T07:33:30.350Z,14.3
2019-03-08T07:34:31.066Z,12.6
2019-03-08T07:35:31.768Z,11.2
2019-03-08T07:36:32.498Z,15.1
2019-03-08T07:37:33.213Z,11.3
2019-03-08T07:38:33.924Z,17.7
2019-03-08T07:39:34.637Z,11.4
2019-03-08T07:40:36.045Z,12.6
2019-03-08T07:41:36.975Z,11.9
2019-03-08T07:42:37.682Z,16.2
2019-03-08T07:43:38.393Z,10.7
2019-03-08T07:44:39.105Z,15.1
2019-03-08T07:45:39.819Z,11.6
2019-03-08T07:46:40.520Z,14.9
2019-03-08T07:47:41.231Z,12.3
2019-03-08T07:48:41.946Z,12.4
2019-03-08T07:49:42.640Z,17.8
2019-03-08T07:50:43.368Z,17.3
2019-03-08T07:51:44.083Z,12.4
2019-03-08T07:52:44.784Z,16.5
2019-03-08T07:53:45.503Z,16.6
2019-03-08T07:54:52.612Z,17.1
2019-03-08T07:55:46.933Z,16.6
2019-03-08T07:56:47.649Z,18.2
2019-03-08T07:57:48.366Z,15.3
2019-03-08T07:58:49.083Z,12.6
2019-03-08T07:59:53.600Z,16.8
2019-03-08T08:00:50.508Z,18.3
2019-03-08T08:01:51.277Z,13.5
2019-03-08T08:02:52.011Z,17.1
2019-03-08T08:03:52.727Z,13.2
2019-03-08T08:04:53.440Z,13.4
2019-03-08T08:05:57.950Z,13.7
2019-03-08T08:06:54.872Z,10.6
2019-03-08T08:07:55.590Z,9.5
2019-03-08T08:08:56.294Z,11.7
2019-03-08T08:09:57.005Z,11.4
2019-03-08T08:10:57.717Z,11.0
2019-03-08T08:11:58.426Z,11.3
2019-03-08T08:12:59.143Z,11.9
2019-03-08T08:13:59.864Z,9.3
2019-03-08T08:15:00.562Z,12.8
2019-03-08T08:16:01.278Z,13.8
2019-03-08T08:17:01.983Z,15.0
2019-03-08T08:18:02.682Z,7.6
2019-03-08T08:19:03.402Z,9.5
2019-03-08T08:20:04.112Z,10.2
2019-03-08T08:21:04.814Z,10.7
2019-03-08T08:22:05.521Z,9.2
2019-03-08T08:23:06.236Z,11.3
2019-03-08T08:24:07.090Z,14.0
2019-03-08T08:25:07.800Z,10.5
2019-03-08T08:26:08.521Z,12.2
2019-03-08T08:27:09.225Z,12.9
2019-03-08T08:28:09.946Z,16.7
2019-03-08T08:29:10.725Z,14.7
2019-03-08T08:30:11.441Z,15.4
2019-03-08T08:31:12.156Z,14.0
2019-03-08T08:32:12.882Z,11.8
2019-03-08T08:33:13.604Z,12.2
2019-03-08T08:34:14.320Z,14.3
2019-03-08T08:35:15.080Z,14.3
2019-03-08T08:36:15.794Z,18.8
2019-03-08T08:37:16.510Z,16.7
2019-03-08T08:38:17.210Z,19.9
2019-03-08T08:39:18.189Z,16.1
2019-03-08T08:40:18.900Z,18.4
2019-03-08T08:41:19.605Z,15.5
2019-03-08T08:42:20.318Z,17.4
2019-03-08T08:43:21.032Z,13.8
2019-03-08T08:44:21.756Z,17.6
2019-03-08T08:45:22.472Z,16.1
2019-03-08T08:46:23.184Z,13.6
2019-03-08T08:47:23.907Z,19.3
2019-03-08T08:48:24.627Z,22.1
2019-03-08T08:49:25.355Z,23.2
2019-03-08T08:50:26.039Z,20.2
2019-03-08T08:51:26.747Z,21.0
2019-03-08T08:52:27.475Z,18.7
2019-03-08T08:53:28.190Z,16.8
2019-03-08T08:54:28.914Z,17.4
2019-03-08T08:55:29.626Z,18.8
2019-03-08T08:56:30.355Z,13.4
2019-03-08T08:57:31.055Z,21.6
2019-03-08T08:58:31.772Z,24.7
2019-03-08T08:59:32.484Z,21.9
2019-03-08T09:00:33.224Z,17.7
2019-03-08T09:01:33.929Z,20.2
2019-03-08T09:02:34.628Z,22.8
2019-03-08T09:03:35.359Z,20.2
2019-03-08T09:04:36.071Z,35.9
2019-03-08T09:05:36.776Z,26.0
2019-03-08T09:06:37.504Z,19.2
2019-03-08T09:07:38.223Z,20.8
2019-03-08T09:08:38.942Z,26.0
2019-03-08T09:09:39.662Z,25.1
2019-03-08T09:10:40.377Z,24.9
2019-03-08T09:11:45.966Z,16.9
2019-03-08T09:12:41.802Z,24.3
2019-03-08T09:13:42.506Z,19.4
2019-03-08T09:14:43.223Z,21.8
2019-03-08T09:15:43.927Z,21.2
2019-03-08T09:16:44.639Z,23.4
2019-03-08T09:17:45.370Z,17.6
2019-03-08T09:18:46.087Z,23.0
2019-03-08T09:19:46.797Z,18.6
2019-03-08T09:20:47.519Z,20.8
2019-03-08T09:21:48.244Z,24.3
2019-03-08T09:22:48.953Z,21.5
2019-03-08T09:23:49.671Z,20.1
2019-03-08T09:24:50.383Z,22.8
2019-03-08T09:25:51.107Z,26.8
2019-03-08T09:26:51.832Z,30.3
2019-03-08T09:27:52.546Z,23.0
2019-03-08T09:28:53.284Z,21.1
2019-03-08T09:29:53.998Z,22.4
2019-03-08T09:30:54.714Z,22.8
2019-03-08T09:31:55.435Z,21.4
2019-03-08T09:32:59.149Z,19.3
2019-03-08T09:33:56.871Z,25.4
2019-03-08T09:34:57.573Z,20.6
2019-03-08T09:35:58.295Z,24.5
2019-03-08T09:36:59.012Z,23.0
2019-03-08T09:37:59.891Z,23.3
2019-03-08T09:39:00.680Z,25.7
2019-03-08T09:40:01.541Z,14.5
2019-03-08T09:41:02.265Z,17.4
2019-03-08T09:42:03.057Z,17.7
2019-03-08T09:43:03.922Z,23.3
2019-03-08T09:44:04.702Z,22.5
2019-03-08T09:45:05.419Z,17.0
2019-03-08T09:46:06.144Z,15.0
2019-03-08T09:47:06.869Z,16.8
2019-03-08T09:48:07.585Z,28.8
2019-03-08T09:49:08.299Z,22.0
2019-03-08T09:50:09.008Z,15.7
2019-03-08T09:51:09.707Z,11.6
2019-03-08T09:52:10.439Z,12.2
2019-03-08T09:53:11.167Z,14.8
2019-03-08T09:54:11.996Z,15.0
2019-03-08T09:55:12.705Z,13.7
2019-03-08T09:56:13.444Z,10.4
2019-03-08T09:57:14.150Z,9.3
2019-03-08T09:58:14.869Z,9.4
2019-03-08T09:59:15.586Z,8.9
2019-03-08T10:00:16.298Z,9.6
2019-03-08T10:01:17.096Z,10.2
2019-03-08T10:02:17.721Z,10.6
2019-03-08T10:03:18.443Z,11.5
2019-03-08T10:04:19.146Z,12.6
2019-03-08T10:05:19.866Z,12.2
2019-03-08T10:06:20.584Z,9.8
2019-03-08T10:07:21.294Z,13.8
2019-03-08T10:08:22.013Z,13.6
2019-03-08T10:09:22.726Z,12.2
2019-03-08T10:10:23.444Z,12.7
2019-03-08T10:11:24.154Z,17.3
2019-03-08T10:12:24.957Z,12.8
2019-03-08T10:13:25.676Z,17.0
2019-03-08T10:14:26.398Z,15.5
2019-03-08T10:15:27.115Z,21.1
2019-03-08T10:16:27.857Z,9.3
2019-03-08T10:17:28.611Z,15.4
2019-03-08T10:18:29.464Z,17.9
2019-03-08T10:19:30.168Z,15.0
2019-03-08T10:20:31.234Z,14.0
2019-03-08T10:21:31.963Z,15.8
2019-03-08T10:22:32.704Z,11.7
2019-03-08T10:23:33.410Z,14.5
2019-03-08T10:24:34.125Z,15.4
2019-03-08T10:25:34.843Z,16.5
2019-03-08T10:26:35.573Z,16.1
2019-03-08T10:27:38.383Z,14.6
2019-03-08T10:28:37.004Z,19.1
2019-03-08T10:29:37.713Z,12.4
2019-03-08T10:30:38.438Z,12.8
2019-03-08T10:31:39.162Z,12.1
2019-03-08T10:32:39.886Z,14.5
2019-03-08T10:33:46.439Z,15.1
2019-03-08T10:34:41.331Z,12.4
2019-03-08T10:35:42.037Z,11.2
2019-03-08T10:36:42.745Z,13.9
2019-03-08T10:37:43.478Z,12.5
2019-03-08T10:38:46.232Z,14.7
2019-03-08T10:39:44.919Z,19.3
2019-03-08T10:40:45.660Z,18.8
2019-03-08T10:41:46.451Z,20.4
2019-03-08T10:42:47.162Z,9.0
2019-03-08T10:43:47.880Z,12.5
2019-03-08T10:44:48.598Z,13.4
2019-03-08T10:45:49.316Z,10.1
2019-03-08T10:46:50.026Z,12.5
2019-03-08T10:47:56.115Z,10.5
2019-03-08T10:48:51.468Z,11.4
2019-03-08T10:49:55.119Z,11.2
2019-03-08T10:50:52.900Z,9.4
2019-03-08T10:51:53.621Z,11.7
2019-03-08T10:52:54.382Z,12.7
2019-03-08T10:54:00.690Z,9.2
2019-03-08T10:54:55.810Z,10.0
2019-03-08T10:55:56.543Z,14.7
2019-03-08T10:56:57.268Z,15.8
2019-03-08T10:57:58.088Z,15.3
2019-03-08T10:58:58.811Z,12.4
2019-03-08T10:59:59.537Z,7.7
2019-03-08T11:01:00.260Z,12.6
2019-03-08T11:02:00.973Z,13.0
2019-03-08T11:03:01.779Z,6.2
2019-03-08T11:04:02.524Z,8.5
2019-03-08T11:05:03.225Z,13.6
2019-03-08T11:06:03.939Z,15.3
2019-03-08T11:07:04.653Z,13.3
2019-03-08T11:08:05.381Z,10.3
2019-03-08T11:09:06.094Z,9.3
2019-03-08T11:10:06.815Z,10.1
2019-03-08T11:11:07.532Z,9.3
2019-03-08T11:12:08.241Z,9.3
2019-03-08T11:13:08.975Z,9.4
2019-03-08T11:14:09.785Z,11.1
2019-03-08T11:15:10.499Z,10.1
2019-03-08T11:16:11.204Z,14.1
2019-03-08T11:17:11.935Z,16.8
2019-03-08T11:18:12.655Z,11.2
2019-03-08T11:19:13.357Z,16.4
2019-03-08T11:20:14.070Z,10.0
2019-03-08T11:21:15.090Z,17.8
2019-03-08T11:22:15.510Z,11.2
2019-03-08T11:23:16.229Z,11.9
2019-03-08T11:24:16.959Z,20.3
2019-03-08T11:25:17.681Z,14.8
2019-03-08T11:26:18.428Z,11.9
2019-03-08T11:27:19.189Z,14.8
2019-03-08T11:28:21.296Z,14.2
2019-03-08T11:29:20.937Z,17.4
2019-03-08T11:30:21.892Z,10.8
2019-03-08T11:31:22.743Z,18.2
2019-03-08T11:32:23.557Z,16.5
2019-03-08T11:33:24.182Z,17.8
2019-03-08T11:34:25.483Z,18.7
2019-03-08T11:35:25.608Z,15.3
2019-03-08T11:36:26.431Z,14.2
2019-03-08T11:37:27.917Z,15.6
2019-03-08T11:38:27.863Z,29.2
2019-03-08T11:39:28.565Z,21.1
2019-03-08T11:40:29.284Z,13.7
2019-03-08T11:41:30.003Z,17.6
2019-03-08T11:42:30.769Z,23.4
2019-03-08T11:43:31.473Z,22.7
2019-03-08T11:44:32.183Z,17.7
2019-03-08T11:45:32.907Z,13.1
2019-03-08T11:46:33.887Z,16.0
2019-03-08T11:47:34.634Z,17.1
2019-03-08T11:48:35.357Z,17.3
2019-03-08T11:49:36.075Z,18.6
2019-03-08T11:50:36.786Z,14.5
2019-03-08T11:51:37.499Z,14.8
2019-03-08T11:52:38.299Z,27.6
2019-03-08T11:53:39.009Z,16.2
2019-03-08T11:54:41.022Z,19.5
2019-03-08T11:55:40.449Z,14.7
2019-03-08T11:56:41.428Z,20.0
2019-03-08T11:57:42.234Z,13.2
2019-03-08T11:58:42.952Z,13.8
2019-03-08T11:59:43.671Z,21.7
2019-03-08T12:00:44.395Z,11.6
2019-03-08T12:01:45.105Z,16.1
2019-03-08T12:02:45.820Z,19.1
2019-03-08T12:03:46.633Z,13.8
2019-03-08T12:04:47.349Z,24.6
2019-03-08T12:05:49.877Z,14.5
2019-03-08T12:06:48.788Z,15.8
2019-03-08T12:07:49.510Z,16.7
2019-03-08T12:08:50.325Z,18.3
2019-03-08T12:09:51.047Z,19.1
2019-03-08T12:10:51.764Z,22.7
2019-03-08T12:11:52.834Z,18.9
2019-03-08T12:12:53.619Z,18.1
2019-03-08T12:13:55.303Z,14.8
2019-03-08T12:14:56.001Z,16.2
2019-03-08T12:15:56.714Z,17.1
2019-03-08T12:16:57.444Z,20.9
2019-03-08T12:17:58.178Z,14.5
2019-03-08T12:18:58.922Z,12.5
2019-03-08T12:19:59.641Z,20.2
2019-03-08T12:21:00.361Z,13.7
2019-03-08T12:22:01.073Z,12.2
2019-03-08T12:23:01.774Z,15.9
2019-03-08T12:24:02.509Z,14.5
2019-03-08T12:25:03.231Z,18.2
2019-03-08T12:26:05.161Z,19.3
2019-03-08T12:27:05.900Z,17.5
2019-03-08T12:28:06.607Z,19.2
2019-03-08T12:29:07.325Z,22.5
2019-03-08T12:30:08.621Z,21.8
2019-03-08T12:31:09.537Z,18.7
2019-03-08T12:32:10.269Z,21.8
2019-03-08T12:33:11.007Z,17.8
2019-03-08T12:34:11.723Z,15.5
2019-03-08T12:35:12.477Z,16.1
2019-03-08T12:36:13.190Z,16.8
2019-03-08T12:37:13.914Z,15.2
2019-03-08T12:38:14.636Z,18.3
2019-03-08T12:39:15.351Z,16.7
2019-03-08T12:40:16.069Z,15.9
2019-03-08T12:41:17.079Z,19.6
2019-03-08T12:42:17.798Z,16.7
2019-03-08T12:43:18.514Z,18.9
2019-03-08T12:44:19.236Z,12.8
2019-03-08T12:45:19.968Z,18.5
2019-03-08T12:46:20.681Z,19.0
2019-03-08T12:47:21.413Z,17.6
2019-03-08T12:48:24.119Z,16.1
2019-03-08T12:49:22.843Z,14.4
2019-03-08T12:50:23.568Z,17.8
2019-03-08T12:51:24.294Z,16.6
2019-03-08T12:52:25.015Z,15.2
2019-03-08T12:53:25.720Z,22.2
2019-03-08T12:54:26.540Z,13.4
2019-03-08T12:55:27.268Z,17.2
2019-03-08T12:56:27.996Z,20.5
2019-03-08T12:57:28.714Z,16.2
2019-03-08T12:58:29.679Z,18.3
2019-03-08T12:59:30.554Z,15.7
2019-03-08T13:00:31.276Z,18.0
2019-03-08T13:01:31.993Z,17.7
2019-03-08T13:02:32.714Z,18.9
2019-03-08T13:03:33.432Z,16.6
2019-03-08T13:04:34.582Z,15.4
2019-03-08T13:05:35.536Z,18.2
2019-03-08T13:06:36.356Z,16.9
2019-03-08T13:07:37.600Z,17.1
2019-03-08T13:08:38.829Z,17.8
2019-03-08T13:09:39.537Z,12.4
2019-03-08T13:10:40.255Z,12.1
2019-03-08T13:11:40.981Z,20.2
2019-03-08T13:12:41.699Z,14.3
2019-03-08T13:13:42.427Z,16.7
2019-03-08T13:14:43.134Z,13.1
2019-03-08T13:15:44.015Z,15.2
2019-03-08T13:16:44.716Z,16.5
2019-03-08T13:17:45.438Z,14.3
2019-03-08T13:18:46.160Z,19.2
2019-03-08T13:19:47.281Z,16.5
2019-03-08T13:20:48.496Z,19.2
2019-03-08T13:21:49.240Z,23.4
2019-03-08T13:22:49.972Z,14.4
2019-03-08T13:23:50.682Z,10.8
2019-03-08T13:24:51.413Z,16.2
2019-03-08T13:25:52.108Z,11.2
2019-03-08T13:26:52.829Z,18.5
2019-03-08T13:27:53.535Z,18.8
2019-03-08T13:28:54.257Z,20.9
2019-03-08T13:29:54.980Z,21.4
2019-03-08T13:30:55.682Z,20.6
2019-03-08T13:31:56.422Z,23.0
2019-03-08T13:32:57.230Z,9.8
2019-03-08T13:33:57.973Z,16.9
2019-03-08T13:34:58.697Z,21.0
2019-03-08T13:35:59.420Z,14.6
2019-03-08T13:37:00.126Z,14.6
2019-03-08T13:38:00.850Z,26.5
2019-03-08T13:39:01.571Z,14.2
2019-03-08T13:40:02.287Z,13.8